Terminal Aerodrome Forecast
Issued by NWS Glasgow, MT

Home | Current Version | Previous Version | Text Only | Print | Product List | Glossary On
Versions: 1 2 3 4 5 6 7 8 9 10 11 12 13 14 15 16
000
FTUS45 KGGW 280300 AAA
TAFGGW
TAF AMD
KGGW 280300Z 2803/2824 30020G30KT 6SM -TSRA OVC020CB
     FM280600 28015G25KT 6SM -RA OVC015
     FM281500 29035G50KT 6SM -RA OVC011=

USA.gov is the U.S. government's official web portal to all federal, state and local government web resources and services.